Time;durP1;ratioP1;P1;durP2;ratioP2;P2;SDS_P1;SDS_P2;PMS_P1;PMS_P2;Temp;Humidity;BMP_temperature;BMP_pressure;BME280_temperature;BME280_humidity;BME280_pressure;Samples;Min_cycle;Max_cycle;Signal;HPM_P1;HPM_P2
2023/09/19 00:01:33;;;;;;;0.30;0.30;;;15.30;99.90;;;;;;5095069;28;19916;-74
2023/09/19 00:03:59;;;;;;;0.40;0.40;;;15.30;99.90;;;;;;5094849;28;20047;-74
2023/09/19 00:06:27;;;;;;;0.30;0.30;;;15.20;99.90;;;;;;5094811;28;20047;-74
2023/09/19 00:08:54;;;;;;;0.30;0.30;;;15.20;99.90;;;;;;5094573;28;20051;-75
2023/09/19 00:11:20;;;;;;;;;;;15.10;99.90;;;;;;5094045;28;20047;-74
2023/09/19 00:13:49;;;;;;;0.55;0.40;;;15.00;99.90;;;;;;5093595;28;19915;-74
2023/09/19 00:16:15;;;;;;;0.30;0.30;;;15.00;99.90;;;;;;5094654;28;20052;-74
2023/09/19 00:18:40;;;;;;;0.20;0.20;;;14.90;99.90;;;;;;5094534;28;20521;-74
2023/09/19 00:21:07;;;;;;;0.50;0.50;;;14.80;99.90;;;;;;5094564;28;20036;-75
2023/09/19 00:23:33;;;;;;;0.30;0.30;;;14.80;99.90;;;;;;5095178;28;20046;-74
2023/09/19 00:26:01;;;;;;;0.30;0.30;;;14.70;99.90;;;;;;5094215;28;20036;-74
2023/09/19 00:28:27;;;;;;;0.43;0.43;;;14.60;99.90;;;;;;5094511;28;20044;-75
2023/09/19 00:30:54;;;;;;;0.43;0.43;;;14.60;99.90;;;;;;5094295;28;20075;-74
2023/09/19 00:33:21;;;;;;;1.10;1.10;;;14.50;99.90;;;;;;5094121;28;20779;-75
2023/09/19 00:35:54;;;;;;;0.40;0.40;;;14.60;99.90;;;;;;5094218;28;20089;-74
2023/09/19 00:38:22;;;;;;;0.30;0.30;;;14.50;99.90;;;;;;5094212;28;20126;-74
2023/09/19 00:40:48;;;;;;;0.30;0.30;;;14.40;99.90;;;;;;5094316;28;20554;-74
2023/09/19 00:43:14;;;;;;;0.40;0.40;;;14.40;99.90;;;;;;5094246;28;20169;-74
2023/09/19 00:45:43;;;;;;;0.30;0.30;;;14.30;99.90;;;;;;5094271;28;20476;-75
2023/09/19 00:48:10;;;;;;;0.30;0.30;;;14.30;99.90;;;;;;5093851;28;20609;-74
2023/09/19 00:50:36;;;;;;;0.30;0.30;;;14.20;99.90;;;;;;5092958;28;20395;-74
2023/09/19 00:53:07;;;;;;;0.30;0.30;;;14.20;99.90;;;;;;5094179;28;20044;-74
2023/09/19 00:55:34;;;;;;;0.30;0.30;;;14.20;99.90;;;;;;5093223;28;20456;-74
2023/09/19 00:58:00;;;;;;;0.65;0.57;;;14.20;99.90;;;;;;5093902;28;20467;-74
2023/09/19 01:00:26;;;;;;;0.37;0.37;;;14.20;99.90;;;;;;5093440;28;20038;-74
2023/09/19 01:02:51;;;;;;;0.40;0.40;;;14.10;99.90;;;;;;5093932;28;20410;-74
2023/09/19 01:05:18;;;;;;;0.40;0.40;;;14.10;99.90;;;;;;5092792;28;20078;-75
2023/09/19 01:07:48;;;;;;;0.30;0.30;;;14.10;99.90;;;;;;5094069;28;20089;-74
2023/09/19 01:10:20;;;;;;;0.30;0.30;;;14.10;99.90;;;;;;5093953;28;20040;-74
2023/09/19 01:13:00;;;;;;;0.60;0.60;;;14.10;99.90;;;;;;5094061;28;20040;-74
2023/09/19 01:15:40;;;;;;;1.70;1.13;;;14.00;99.90;;;;;;5092669;28;20044;-75
2023/09/19 01:18:24;;;;;;;0.50;0.50;;;14.00;99.90;;;;;;5093697;28;20058;-74
2023/09/19 01:21:13;;;;;;;0.40;0.40;;;14.00;99.90;;;;;;5093631;28;20047;-74
2023/09/19 01:23:49;;;;;;;0.30;0.30;;;14.00;99.90;;;;;;5093797;28;20044;-74
2023/09/19 01:26:30;;;;;;;0.30;0.30;;;14.00;99.90;;;;;;5093733;28;20048;-74
2023/09/19 01:29:08;;;;;;;0.30;0.30;;;14.00;99.90;;;;;;5093911;28;20032;-74
2023/09/19 01:31:37;;;;;;;0.30;0.30;;;14.00;99.90;;;;;;5093620;28;20485;-74
2023/09/19 01:34:04;;;;;;;0.40;0.40;;;13.90;99.90;;;;;;5093565;28;20054;-74
2023/09/19 01:36:36;;;;;;;0.90;0.75;;;14.00;99.90;;;;;;5093597;28;20040;-73
2023/09/19 01:39:10;;;;;;;0.40;0.40;;;14.00;99.90;;;;;;5093757;28;20032;-73
2023/09/19 01:41:47;;;;;;;0.30;0.30;;;14.00;99.90;;;;;;5093577;28;20044;-75
2023/09/19 01:44:22;;;;;;;0.40;0.40;;;14.00;99.90;;;;;;5093554;28;20048;-75
2023/09/19 01:46:48;;;;;;;0.30;0.30;;;14.00;99.90;;;;;;5093519;28;20047;-74
2023/09/19 01:49:43;;;;;;;0.37;0.37;;;14.00;99.90;;;;;;5092459;28;20040;-74
2023/09/19 01:52:19;;;;;;;0.60;0.60;;;14.00;99.90;;;;;;5093473;28;20479;-74
2023/09/19 01:54:55;;;;;;;0.77;0.50;;;14.00;99.90;;;;;;5093478;28;20132;-74
2023/09/19 01:57:33;;;;;;;0.40;0.40;;;14.00;99.90;;;;;;5093406;28;20487;-74
2023/09/19 02:00:06;;;;;;;0.30;0.30;;;13.90;99.90;;;;;;5093704;28;20039;-74
2023/09/19 02:02:39;;;;;;;0.40;0.40;;;13.90;99.90;;;;;;5093438;28;20067;-74
2023/09/19 02:05:06;;;;;;;0.40;0.40;;;13.90;99.90;;;;;;5093491;28;20040;-74
2023/09/19 02:07:32;;;;;;;10.65;0.63;;;13.90;99.90;;;;;;5093011;28;20086;-74
2023/09/19 02:10:00;;;;;;;0.60;0.60;;;13.80;99.90;;;;;;5093081;28;20087;-73
2023/09/19 02:12:27;;;;;;;0.40;0.40;;;13.80;99.90;;;;;;5096114;28;20048;-74
2023/09/19 02:14:53;;;;;;;0.40;0.40;;;13.80;99.90;;;;;;5097398;28;20151;-74
2023/09/19 02:17:19;;;;;;;0.40;0.40;;;13.80;99.90;;;;;;5097069;28;20119;-74
2023/09/19 02:19:45;;;;;;;0.40;0.40;;;13.80;99.90;;;;;;5096907;28;20471;-74
2023/09/19 02:22:10;;;;;;;0.40;0.40;;;13.70;99.90;;;;;;5096886;28;20039;-74
2023/09/19 02:24:39;;;;;;;0.30;0.30;;;13.80;99.90;;;;;;5096598;28;20051;-73
2023/09/19 02:27:05;;;;;;;0.40;0.40;;;13.70;99.90;;;;;;5096611;28;20452;-74
2023/09/19 02:29:31;;;;;;;0.40;0.40;;;13.70;99.90;;;;;;5096775;28;20036;-73
2023/09/19 02:31:57;;;;;;;0.40;0.40;;;13.60;99.90;;;;;;5096703;28;20048;-76
2023/09/19 02:34:23;;;;;;;0.30;0.30;;;13.60;99.90;;;;;;5096724;28;20128;-74
2023/09/19 02:36:49;;;;;;;0.40;0.40;;;13.60;99.90;;;;;;5096642;28;20035;-74
2023/09/19 02:39:14;;;;;;;0.50;0.50;;;13.60;99.90;;;;;;5096384;28;20171;-74
2023/09/19 02:41:41;;;;;;;0.73;0.73;;;13.60;99.90;;;;;;5097047;28;20063;-74
2023/09/19 02:44:07;;;;;;;0.50;0.50;;;13.60;99.90;;;;;;5096673;28;20093;-74
2023/09/19 02:46:35;;;;;;;0.35;0.35;;;13.60;99.90;;;;;;5096469;28;20066;-74
2023/09/19 02:49:04;;;;;;;0.40;0.40;;;13.50;99.90;;;;;;5096590;28;20096;-74
2023/09/19 02:51:30;;;;;;;1.52;0.82;;;13.50;99.90;;;;;;5096290;28;20388;-74
2023/09/19 02:53:56;;;;;;;1.33;0.77;;;13.50;99.90;;;;;;5096807;28;20040;-75
2023/09/19 02:56:22;;;;;;;0.50;0.50;;;13.50;99.90;;;;;;5096321;28;20506;-74
2023/09/19 02:58:48;;;;;;;0.40;0.40;;;13.40;99.90;;;;;;5096216;28;20047;-74
2023/09/19 03:01:18;;;;;;;0.40;0.40;;;13.40;99.90;;;;;;5096181;28;20375;-74
2023/09/19 03:03:45;;;;;;;0.40;0.40;;;13.40;99.90;;;;;;5096260;28;20044;-74
2023/09/19 03:06:13;;;;;;;0.40;0.40;;;13.30;99.90;;;;;;5096253;28;20044;-74
2023/09/19 03:08:39;;;;;;;0.65;0.65;;;13.40;99.90;;;;;;5094789;28;20074;-73
2023/09/19 03:11:06;;;;;;;0.40;0.40;;;13.40;99.90;;;;;;5095934;28;20169;-74
2023/09/19 03:13:32;;;;;;;0.40;0.40;;;13.30;99.90;;;;;;5095663;28;20036;-74
2023/09/19 03:15:58;;;;;;;0.40;0.40;;;13.30;99.90;;;;;;5095952;28;20417;-74
2023/09/19 03:18:26;;;;;;;0.50;0.50;;;13.30;99.90;;;;;;5095510;28;20085;-74
2023/09/19 03:20:55;;;;;;;0.50;0.50;;;13.20;99.90;;;;;;5095699;28;20051;-74
2023/09/19 03:23:21;;;;;;;0.60;0.60;;;13.30;99.90;;;;;;5095182;28;20486;-74
2023/09/19 03:25:47;;;;;;;0.47;0.47;;;13.30;99.90;;;;;;5095755;28;20043;-74
2023/09/19 03:28:15;;;;;;;0.40;0.40;;;13.30;99.90;;;;;;5095761;28;20032;-74
2023/09/19 03:30:41;;;;;;;0.40;0.40;;;13.30;99.90;;;;;;5095600;28;20048;-75
2023/09/19 03:33:06;;;;;;;0.37;0.37;;;13.30;99.90;;;;;;5095574;28;20047;-74
2023/09/19 03:35:32;;;;;;;0.50;0.50;;;13.30;99.90;;;;;;5095491;28;20452;-74
2023/09/19 03:37:57;;;;;;;0.50;0.50;;;13.20;99.90;;;;;;5095127;28;20040;-75
2023/09/19 03:40:23;;;;;;;0.40;0.40;;;13.20;99.90;;;;;;5095076;28;20044;-74
2023/09/19 03:42:49;;;;;;;0.40;0.40;;;13.20;99.90;;;;;;5094388;28;20039;-74
2023/09/19 03:45:15;;;;;;;0.70;0.70;;;13.20;99.90;;;;;;5095361;28;20042;-74
2023/09/19 03:47:41;;;;;;;0.45;0.45;;;13.20;99.90;;;;;;5095398;28;20075;-74
2023/09/19 03:50:08;;;;;;;0.30;0.30;;;13.30;99.90;;;;;;5095177;28;20040;-74
2023/09/19 03:52:34;;;;;;;0.52;0.50;;;13.30;99.90;;;;;;5095219;28;20040;-74
2023/09/19 03:55:01;;;;;;;0.40;0.40;;;13.30;99.90;;;;;;5095171;28;20044;-73
2023/09/19 03:57:26;;;;;;;0.55;0.55;;;13.40;99.90;;;;;;5095018;28;20282;-73
2023/09/19 03:59:53;;;;;;;0.50;0.50;;;13.40;99.90;;;;;;5095067;28;20112;-75
2023/09/19 04:02:22;;;;;;;0.43;0.43;;;13.50;99.90;;;;;;5095077;28;20059;-74
2023/09/19 04:04:51;;;;;;;0.40;0.40;;;13.50;99.90;;;;;;5094916;28;20042;-73
2023/09/19 04:07:19;;;;;;;0.47;0.47;;;13.50;99.90;;;;;;5095311;28;20459;-73
2023/09/19 04:09:45;;;;;;;0.50;0.50;;;13.50;99.90;;;;;;5094698;28;20063;-74
2023/09/19 04:12:11;;;;;;;0.60;0.60;;;13.50;99.90;;;;;;5094778;28;20499;-75
2023/09/19 04:14:38;;;;;;;0.60;0.60;;;13.50;99.90;;;;;;5094919;28;20383;-73
2023/09/19 04:17:05;;;;;;;0.50;0.50;;;13.50;99.90;;;;;;5094418;28;20479;-73
2023/09/19 04:19:31;;;;;;;0.57;0.57;;;13.50;99.90;;;;;;5093432;28;20043;-74
2023/09/19 04:21:56;;;;;;;0.68;0.68;;;13.50;99.90;;;;;;5094371;28;20067;-74
2023/09/19 04:24:22;;;;;;;0.50;0.50;;;13.60;99.90;;;;;;5094933;28;20043;-73
2023/09/19 04:26:48;;;;;;;0.63;0.63;;;13.60;99.90;;;;;;5094819;28;20048;-74
2023/09/19 04:29:13;;;;;;;0.40;0.40;;;13.60;99.90;;;;;;5094421;28;20048;-73
2023/09/19 04:31:40;;;;;;;0.45;0.45;;;13.60;99.90;;;;;;5076759;28;20051;-74
2023/09/19 04:34:06;;;;;;;0.50;0.50;;;13.60;99.90;;;;;;5093978;28;20447;-74
2023/09/19 04:36:31;;;;;;;1.13;0.80;;;13.60;99.90;;;;;;5093959;28;20049;-74
2023/09/19 04:38:57;;;;;;;0.40;0.40;;;13.60;99.90;;;;;;5094309;28;20340;-74
2023/09/19 04:41:24;;;;;;;0.52;0.52;;;13.60;99.90;;;;;;5094338;28;20040;-74
2023/09/19 04:43:50;;;;;;;0.60;0.60;;;13.60;99.90;;;;;;5093082;28;20036;-73
2023/09/19 04:46:17;;;;;;;0.50;0.50;;;13.50;99.90;;;;;;5094194;28;20082;-73
2023/09/19 04:48:43;;;;;;;;;;;13.60;99.90;;;;;;5094215;28;20087;-74
2023/09/19 04:51:08;;;;;;;1.48;0.93;;;13.50;99.90;;;;;;5094800;28;19922;-74
2023/09/19 04:53:34;;;;;;;0.40;0.40;;;13.60;99.90;;;;;;5093936;28;20437;-74
2023/09/19 04:55:59;;;;;;;0.57;0.40;;;13.60;99.90;;;;;;5094085;28;20036;-74
2023/09/19 04:58:25;;;;;;;0.43;0.43;;;13.60;99.90;;;;;;5093881;28;20471;-74
2023/09/19 05:00:51;;;;;;;0.68;0.68;;;13.60;99.90;;;;;;5094064;28;20047;-74
2023/09/19 05:03:17;;;;;;;0.40;0.40;;;13.60;99.90;;;;;;5092436;28;20467;-74
2023/09/19 05:05:43;;;;;;;0.40;0.40;;;13.60;99.90;;;;;;5093967;28;20043;-75
2023/09/19 05:08:09;;;;;;;0.85;0.85;;;13.60;99.90;;;;;;5093763;28;20052;-74
2023/09/19 05:10:38;;;;;;;1.25;0.77;;;13.60;99.90;;;;;;5093675;28;20403;-75
2023/09/19 05:13:04;;;;;;;0.50;0.43;;;13.60;99.90;;;;;;5093825;28;20177;-74
2023/09/19 05:15:31;;;;;;;0.40;0.40;;;13.60;99.90;;;;;;5093570;28;20040;-74
2023/09/19 05:17:56;;;;;;;0.50;0.50;;;13.70;99.90;;;;;;5093320;28;20479;-74
2023/09/19 05:20:29;;;;;;;0.40;0.40;;;13.60;99.90;;;;;;5093541;28;20085;-74
2023/09/19 05:23:02;;;;;;;0.70;0.70;;;13.60;99.90;;;;;;5093691;28;20063;-78
2023/09/19 05:25:29;;;;;;;0.50;0.50;;;13.50;99.90;;;;;;5093937;28;20046;-75
2023/09/19 05:27:57;;;;;;;0.43;0.43;;;13.60;99.90;;;;;;5092492;28;20046;-76
2023/09/19 05:30:23;;;;;;;0.55;0.55;;;13.50;99.90;;;;;;5093248;28;20044;-78
2023/09/19 05:32:51;;;;;;;0.50;0.50;;;13.50;99.90;;;;;;5094085;28;20089;-78
2023/09/19 05:35:16;;;;;;;1.42;1.17;;;13.60;99.90;;;;;;5094115;28;20044;-74
2023/09/19 05:37:42;;;;;;;0.40;0.40;;;13.50;99.90;;;;;;5093518;28;20036;-75
2023/09/19 05:40:09;;;;;;;0.50;0.50;;;13.50;99.90;;;;;;5092157;28;20040;-75
2023/09/19 05:42:34;;;;;;;;;;;13.50;99.90;;;;;;5093977;28;20051;-77
2023/09/19 05:45:00;;;;;;;0.45;0.45;;;13.70;99.90;;;;;;5093511;28;19916;-72
2023/09/19 05:47:26;;;;;;;0.50;0.50;;;13.40;99.90;;;;;;5096605;28;20040;-71
2023/09/19 05:49:52;;;;;;;2.42;0.80;;;13.40;99.90;;;;;;5097605;28;20055;-72
2023/09/19 05:52:18;;;;;;;0.70;0.70;;;13.40;99.90;;;;;;5097539;28;20052;-71
2023/09/19 05:54:44;;;;;;;0.50;0.50;;;13.40;99.90;;;;;;5097543;28;20039;-73
2023/09/19 05:57:12;;;;;;;0.75;0.75;;;13.40;99.90;;;;;;5097258;28;20131;-74
2023/09/19 05:59:39;;;;;;;0.60;0.60;;;13.40;99.90;;;;;;5097294;28;20044;-73
2023/09/19 06:02:06;;;;;;;0.60;0.52;;;13.40;99.90;;;;;;5097779;28;20110;-76
2023/09/19 06:04:31;;;;;;;0.50;0.50;;;13.40;99.90;;;;;;5097269;28;20048;-76
2023/09/19 06:06:58;;;;;;;0.93;0.60;;;13.40;99.90;;;;;;5096791;28;20131;-74
2023/09/19 06:09:23;;;;;;;0.40;0.40;;;13.40;99.90;;;;;;5095563;28;20574;-75
2023/09/19 06:11:49;;;;;;;0.63;0.63;;;13.40;99.90;;;;;;5097021;28;20131;-73
2023/09/19 06:14:17;;;;;;;0.30;0.30;;;13.40;99.90;;;;;;5096102;28;20048;-73
2023/09/19 06:16:43;;;;;;;0.47;0.47;;;13.40;99.90;;;;;;5096998;28;20097;-73
2023/09/19 06:19:09;;;;;;;0.40;0.40;;;13.40;99.90;;;;;;5097303;28;20039;-73
2023/09/19 06:21:35;;;;;;;0.73;0.73;;;13.40;99.90;;;;;;5096861;28;20040;-73
2023/09/19 06:24:02;;;;;;;0.50;0.50;;;13.50;99.90;;;;;;5095070;28;20043;-73
2023/09/19 06:26:29;;;;;;;1.15;0.70;;;13.50;99.90;;;;;;5096782;28;20075;-72
2023/09/19 06:28:55;;;;;;;1.20;0.75;;;13.60;99.90;;;;;;5096298;28;20052;-73
2023/09/19 06:31:22;;;;;;;0.50;0.50;;;13.60;99.90;;;;;;5096748;28;20040;-72
2023/09/19 06:33:48;;;;;;;0.50;0.50;;;13.70;99.90;;;;;;5096721;28;20059;-73
2023/09/19 06:36:15;;;;;;;0.67;0.67;;;13.70;99.90;;;;;;5096711;28;20043;-72
2023/09/19 06:38:40;;;;;;;0.40;0.40;;;13.60;99.90;;;;;;5096584;28;20075;-73
2023/09/19 06:41:09;;;;;;;0.38;0.38;;;13.80;99.90;;;;;;5096637;28;20105;-72
2023/09/19 06:43:35;;;;;;;0.40;0.40;;;13.90;99.90;;;;;;5096562;28;20044;-72
2023/09/19 06:46:02;;;;;;;0.80;0.80;;;13.90;99.90;;;;;;5096221;28;20053;-73
2023/09/19 06:48:29;;;;;;;0.52;0.50;;;13.90;99.90;;;;;;5096490;28;20082;-72
2023/09/19 06:50:56;;;;;;;0.85;0.73;;;13.90;99.90;;;;;;5096426;28;20085;-72
2023/09/19 06:53:23;;;;;;;0.50;0.50;;;13.90;99.90;;;;;;5096393;28;20044;-72
2023/09/19 06:55:50;;;;;;;0.63;0.63;;;13.90;99.90;;;;;;5096285;28;20047;-72
2023/09/19 06:58:16;;;;;;;3.40;0.40;;;13.90;99.90;;;;;;5095104;28;20048;-72
2023/09/19 07:00:42;;;;;;;1.35;0.47;;;13.90;99.90;;;;;;5096283;28;20126;-72
2023/09/19 07:03:11;;;;;;;0.30;0.30;;;13.90;99.90;;;;;;5095025;28;20079;-72
2023/09/19 07:05:38;;;;;;;1.27;0.73;;;14.00;99.90;;;;;;5096099;28;20502;-73
2023/09/19 07:08:05;;;;;;;0.50;0.50;;;13.90;99.90;;;;;;5095920;28;20074;-73
2023/09/19 07:10:32;;;;;;;1.20;0.57;;;14.00;99.90;;;;;;5095995;28;20044;-72
2023/09/19 07:12:58;;;;;;;0.50;0.50;;;14.00;99.90;;;;;;5095936;28;20036;-73
2023/09/19 07:15:25;;;;;;;0.77;0.77;;;14.00;99.90;;;;;;5096029;28;20071;-73
2023/09/19 07:17:53;;;;;;;0.47;0.47;;;14.00;99.90;;;;;;5095632;28;20043;-72
2023/09/19 07:20:20;;;;;;;0.38;0.38;;;14.30;99.90;;;;;;5095656;28;20460;-72
2023/09/19 07:22:47;;;;;;;0.65;0.65;;;14.20;99.90;;;;;;5095816;28;20127;-73
2023/09/19 07:25:14;;;;;;;0.45;0.45;;;14.40;99.90;;;;;;5095795;28;20047;-72
2023/09/19 07:27:40;;;;;;;;;;;14.40;99.90;;;;;;5096119;28;20047;-72
2023/09/19 07:30:08;;;;;;;0.40;0.40;;;14.50;99.90;;;;;;5096042;28;19923;-73
2023/09/19 07:32:36;;;;;;;0.93;0.68;;;14.60;99.90;;;;;;5095646;28;20387;-73
2023/09/19 07:35:02;;;;;;;0.45;0.45;;;14.70;99.90;;;;;;5095616;28;20074;-72
2023/09/19 07:37:31;;;;;;;0.40;0.40;;;14.80;99.90;;;;;;5095470;28;20075;-73
2023/09/19 07:39:56;;;;;;;0.40;0.40;;;14.90;99.90;;;;;;5095323;28;20040;-72
2023/09/19 07:42:22;;;;;;;0.40;0.40;;;15.00;99.90;;;;;;5095392;28;20043;-72
2023/09/19 07:44:50;;;;;;;0.40;0.40;;;15.10;99.90;;;;;;5095398;28;20128;-72
2023/09/19 07:47:16;;;;;;;0.30;0.30;;;15.10;99.90;;;;;;5095315;28;20439;-73
2023/09/19 07:49:42;;;;;;;0.40;0.40;;;15.10;99.90;;;;;;5095410;28;20076;-72
2023/09/19 07:52:10;;;;;;;1.40;0.90;;;15.20;99.90;;;;;;5095228;28;20051;-72
2023/09/19 07:54:36;;;;;;;0.57;0.57;;;15.30;99.90;;;;;;5094772;28;20089;-72
2023/09/19 07:57:02;;;;;;;1.87;0.83;;;15.40;99.90;;;;;;5094841;28;20471;-73
2023/09/19 07:59:28;;;;;;;0.45;0.45;;;15.40;99.90;;;;;;5095024;28;20294;-73
2023/09/19 08:01:53;;;;;;;0.40;0.40;;;15.50;99.90;;;;;;5095364;28;20375;-73
2023/09/19 08:04:19;;;;;;;0.40;0.40;;;15.70;99.90;;;;;;5095281;28;20036;-72
2023/09/19 08:06:45;;;;;;;0.40;0.40;;;15.80;99.90;;;;;;5094825;28;20044;-72
2023/09/19 08:09:14;;;;;;;0.30;0.30;;;15.80;99.90;;;;;;5094145;28;20131;-73
2023/09/19 08:11:39;;;;;;;0.43;0.43;;;16.00;99.90;;;;;;5094759;28;20044;-77
2023/09/19 08:14:08;;;;;;;1.17;0.67;;;16.00;99.90;;;;;;5094685;28;20328;-71
2023/09/19 08:16:34;;;;;;;0.52;0.52;;;16.10;99.90;;;;;;5095212;28;20101;-74
2023/09/19 08:18:59;;;;;;;0.30;0.30;;;16.10;99.90;;;;;;5094473;28;20043;-72
2023/09/19 08:21:27;;;;;;;0.30;0.30;;;16.10;99.90;;;;;;5094455;28;20046;-72
2023/09/19 08:23:53;;;;;;;0.35;0.35;;;16.20;99.90;;;;;;5094576;28;20036;-73
2023/09/19 08:26:19;;;;;;;0.70;0.53;;;16.20;99.90;;;;;;5094235;28;20062;-71
2023/09/19 08:28:45;;;;;;;0.40;0.40;;;16.20;99.90;;;;;;5094234;28;20558;-76
2023/09/19 08:31:11;;;;;;;0.80;0.80;;;16.30;99.90;;;;;;5094572;28;20128;-77
2023/09/19 08:33:37;;;;;;;0.83;0.83;;;16.40;99.90;;;;;;5094571;28;20043;-76
2023/09/19 08:36:07;;;;;;;0.40;0.40;;;16.60;99.90;;;;;;5094388;28;20111;-75
2023/09/19 08:38:35;;;;;;;0.60;0.60;;;16.40;99.90;;;;;;5092680;28;20437;-73
2023/09/19 08:41:05;;;;;;;0.70;0.50;;;16.30;99.90;;;;;;5094007;28;20047;-75
2023/09/19 08:43:33;;;;;;;0.40;0.40;;;16.30;99.90;;;;;;5076172;28;20076;-76
2023/09/19 08:46:10;;;;;;;0.90;0.82;;;16.30;99.90;;;;;;5092981;28;20063;-75
2023/09/19 08:48:44;;;;;;;0.35;0.35;;;16.40;99.90;;;;;;5094078;28;20378;-73
2023/09/19 08:51:37;;;;;;;0.30;0.30;;;16.40;99.90;;;;;;5093656;28;20036;-74
2023/09/19 08:54:04;;;;;;;0.40;0.40;;;16.50;99.90;;;;;;5092821;28;20140;-74
2023/09/19 08:56:30;;;;;;;;;;;16.60;99.90;;;;;;5093331;28;20044;-74
2023/09/19 08:58:59;;;;;;;1.88;0.73;;;16.50;99.90;;;;;;5093495;28;19923;-74
2023/09/19 09:01:28;;;;;;;0.52;0.52;;;16.70;99.90;;;;;;5093637;28;20043;-74
2023/09/19 09:03:55;;;;;;;0.70;0.57;;;16.80;99.90;;;;;;5093580;28;20085;-74
2023/09/19 09:06:23;;;;;;;0.30;0.30;;;16.80;99.90;;;;;;5093556;28;20040;-74
2023/09/19 09:08:50;;;;;;;0.60;0.60;;;16.90;99.90;;;;;;5093541;28;20172;-75
2023/09/19 09:11:17;;;;;;;0.68;0.68;;;17.00;99.90;;;;;;5094202;28;20105;-75
2023/09/19 09:13:44;;;;;;;0.40;0.40;;;17.10;99.90;;;;;;5093873;28;20079;-74
2023/09/19 09:16:10;;;;;;;0.52;0.52;;;17.10;99.90;;;;;;5093698;28;20493;-74
2023/09/19 09:18:36;;;;;;;1.13;0.75;;;17.20;99.90;;;;;;5094154;28;20127;-73
2023/09/19 09:21:04;;;;;;;0.77;0.77;;;17.30;99.90;;;;;;5093348;28;20040;-73
2023/09/19 09:23:31;;;;;;;0.55;0.55;;;17.30;99.90;;;;;;5093973;28;20044;-73
2023/09/19 09:26:02;;;;;;;0.40;0.40;;;17.40;99.90;;;;;;5093894;28;20043;-73
2023/09/19 09:28:28;;;;;;;0.40;0.40;;;17.40;99.90;;;;;;5093765;28;20553;-74
2023/09/19 09:30:55;;;;;;;0.68;0.43;;;17.50;99.90;;;;;;5092064;28;20093;-73
2023/09/19 09:33:21;;;;;;;0.95;0.45;;;17.70;99.90;;;;;;5093499;28;20040;-73
2023/09/19 09:36:03;;;;;;;0.40;0.40;;;17.70;99.90;;;;;;5092301;28;20455;-74
2023/09/19 09:38:48;;;;;;;0.50;0.50;;;17.90;99.90;;;;;;5092305;28;20048;-74
2023/09/19 09:41:27;;;;;;;0.40;0.40;;;17.90;99.90;;;;;;5092864;28;20460;-73
2023/09/19 09:43:53;;;;;;;1.77;1.00;;;18.00;99.90;;;;;;5093565;28;20050;-74
2023/09/19 09:52:07;;;;;;;0.30;0.30;;;18.10;99.90;;;;;;5093484;28;20079;-71
2023/09/19 09:54:36;;;;;;;0.30;0.30;;;18.20;99.90;;;;;;5086191;28;20472;-72
2023/09/19 09:57:23;;;;;;;0.30;0.30;;;18.20;99.90;;;;;;5093308;28;20387;-71
2023/09/19 09:59:53;;;;;;;0.30;0.30;;;18.20;99.90;;;;;;5092239;28;20042;-71
2023/09/19 10:02:36;;;;;;;0.85;0.85;;;18.20;99.90;;;;;;5093313;28;20402;-73
2023/09/19 10:07:53;;;;;;;0.90;0.90;;;18.10;99.90;;;;;;5092942;28;20079;-74
2023/09/19 10:13:14;;;;;;;0.45;0.40;;;18.20;99.90;;;;;;5093299;28;20131;-73
2023/09/19 10:15:48;;;;;;;0.75;0.50;;;18.20;99.90;;;;;;5093551;28;20055;-75
2023/09/19 10:18:18;;;;;;;0.40;0.40;;;18.20;99.90;;;;;;5093252;28;20055;-72
2023/09/19 10:20:45;;;;;;;0.43;0.43;;;18.20;99.90;;;;;;5093146;28;20036;-73
2023/09/19 10:23:12;;;;;;;0.63;0.63;;;18.30;99.90;;;;;;5092994;28;20349;-71
2023/09/19 10:25:38;;;;;;;;;;;18.40;99.90;;;;;;5094027;28;20059;-72
2023/09/19 10:28:10;;;;;;;0.30;0.30;;;18.50;99.90;;;;;;5093609;28;19942;-73
2023/09/19 10:30:41;;;;;;;0.50;0.50;;;18.60;99.90;;;;;;5093384;28;20382;-73
2023/09/19 10:33:07;;;;;;;0.40;0.40;;;18.70;99.90;;;;;;5093726;28;20043;-72
2023/09/19 10:35:40;;;;;;;0.45;0.45;;;18.70;99.90;;;;;;5096740;28;20476;-73
2023/09/19 10:38:06;;;;;;;0.52;0.52;;;18.70;99.90;;;;;;5097746;28;20070;-75
2023/09/19 10:40:33;;;;;;;1.52;0.68;;;18.70;99.90;;;;;;5096537;28;20043;-75
2023/09/19 10:43:05;;;;;;;5.57;0.43;;;18.80;99.90;;;;;;5097040;28;20463;-76
2023/09/19 10:45:32;;;;;;;0.40;0.40;;;18.70;99.90;;;;;;5096558;28;20044;-75
2023/09/19 10:48:00;;;;;;;0.30;0.30;;;18.70;99.90;;;;;;5096559;28;20032;-74
2023/09/19 10:50:31;;;;;;;0.30;0.30;;;18.60;99.90;;;;;;5096372;28;20036;-74
2023/09/19 10:53:04;;;;;;;0.40;0.40;;;18.60;99.90;;;;;;5096337;28;20039;-73
2023/09/19 10:55:31;;;;;;;0.38;0.38;;;18.70;99.90;;;;;;5096744;28;20044;-74
2023/09/19 10:58:14;;;;;;;0.30;0.30;;;18.70;99.90;;;;;;5096165;28;20036;-73
2023/09/19 11:00:54;;;;;;;0.95;0.65;;;18.70;99.90;;;;;;5094982;28;20074;-74
2023/09/19 11:03:23;;;;;;;2.20;1.10;;;18.60;99.90;;;;;;5095957;28;20475;-72
2023/09/19 11:06:05;;;;;;;0.43;0.43;;;18.60;99.90;;;;;;5096190;28;20040;-74
2023/09/19 11:08:51;;;;;;;0.68;0.68;;;18.60;99.90;;;;;;5095959;28;20062;-72
2023/09/19 11:11:39;;;;;;;0.47;0.40;;;18.70;99.90;;;;;;5095985;28;20040;-72
2023/09/19 11:14:23;;;;;;;0.30;0.30;;;18.70;99.90;;;;;;5094881;28;20048;-73
2023/09/19 11:17:11;;;;;;;0.75;0.40;;;18.60;99.90;;;;;;5095957;28;20123;-74
2023/09/19 11:25:31;;;;;;;0.30;0.30;;;18.50;99.90;;;;;;5095882;28;20063;-72
2023/09/19 11:28:09;;;;;;;0.52;0.50;;;18.50;99.90;;;;;;5095352;28;20527;-73
2023/09/19 11:30:36;;;;;;;;;;;18.50;99.90;;;;;;5095998;28;20051;-73
2023/09/19 11:33:33;;;;;;;1.00;0.93;;;18.60;99.90;;;;;;5094354;28;20046;-74
2023/09/19 11:36:05;;;;;;;1.45;0.85;;;18.70;99.90;;;;;;5095575;28;20040;-74
2023/09/19 11:38:44;;;;;;;0.68;0.68;;;18.70;99.90;;;;;;5095308;28;20035;-74
2023/09/19 11:41:21;;;;;;;0.77;0.77;;;18.70;99.90;;;;;;5095524;28;20467;-73
2023/09/19 11:44:17;;;;;;;0.30;0.30;;;18.70;99.90;;;;;;5095041;28;20100;-75
2023/09/19 11:46:52;;;;;;;0.38;0.38;;;18.70;99.90;;;;;;5082195;28;20048;-74
2023/09/19 11:49:33;;;;;;;0.30;0.30;;;18.80;99.90;;;;;;5095213;28;20077;-72
2023/09/19 11:52:01;;;;;;;0.30;0.30;;;18.90;99.90;;;;;;5095574;28;20036;-73
2023/09/19 11:54:31;;;;;;;1.05;1.05;;;19.00;99.90;;;;;;5095046;28;20090;-74
2023/09/19 11:56:58;;;;;;;0.30;0.30;;;19.10;99.90;;;;;;5094976;28;20475;-73
2023/09/19 11:59:27;;;;;;;;;;;19.20;99.90;;;;;;5095394;28;20097;-72
2023/09/19 12:01:58;;;;;;;0.20;0.20;;;19.20;99.90;;;;;;5095441;28;19985;-73
2023/09/19 12:04:45;;;;;;;0.30;0.30;;;19.20;99.90;;;;;;5095250;28;20433;-74
2023/09/19 12:07:15;;;;;;;0.30;0.30;;;19.20;99.90;;;;;;5094996;28;20036;-72
2023/09/19 12:10:04;;;;;;;0.30;0.30;;;19.20;99.90;;;;;;5093365;28;20054;-73
2023/09/19 12:12:30;;;;;;;0.30;0.30;;;19.20;99.90;;;;;;5094669;28;20059;-73
2023/09/19 12:15:03;;;;;;;0.40;0.40;;;19.20;99.90;;;;;;5094955;28;20044;-73
2023/09/19 12:17:36;;;;;;;1.70;0.80;;;19.10;99.90;;;;;;5094857;28;20048;-73
2023/09/19 12:20:14;;;;;;;0.30;0.30;;;19.00;99.90;;;;;;5094691;28;20028;-74
2023/09/19 12:22:45;;;;;;;0.30;0.30;;;18.90;99.90;;;;;;5095129;28;20058;-74
2023/09/19 12:25:11;;;;;;;0.40;0.40;;;18.90;99.90;;;;;;5095005;28;20093;-74
2023/09/19 12:27:49;;;;;;;0.40;0.40;;;18.80;99.90;;;;;;5094136;28;20434;-74
2023/09/19 12:30:17;;;;;;;0.65;0.65;;;18.90;99.90;;;;;;5094378;28;20048;-73
2023/09/19 12:32:44;;;;;;;0.40;0.40;;;19.00;99.90;;;;;;5094199;28;20383;-74
2023/09/19 12:35:20;;;;;;;0.40;0.40;;;19.20;99.90;;;;;;5094427;28;20068;-73
2023/09/19 12:37:48;;;;;;;0.20;0.20;;;19.30;99.90;;;;;;5094779;28;20046;-73
2023/09/19 12:40:18;;;;;;;0.50;0.50;;;19.50;99.90;;;;;;5094379;28;20044;-72
2023/09/19 12:42:47;;;;;;;0.40;0.40;;;19.60;99.90;;;;;;5094329;28;20096;-71
2023/09/19 12:45:15;;;;;;;0.30;0.30;;;19.60;99.90;;;;;;5094269;28;20044;-70
2023/09/19 12:48:00;;;;;;;0.40;0.40;;;19.60;99.90;;;;;;5094254;28;20039;-72
2023/09/19 12:50:29;;;;;;;4.20;1.50;;;19.40;99.90;;;;;;5094466;28;20376;-73
2023/09/19 12:52:58;;;;;;;0.28;0.28;;;19.30;99.90;;;;;;5093889;28;20480;-72
2023/09/19 12:55:32;;;;;;;0.30;0.30;;;19.30;99.90;;;;;;5093540;28;20044;-72
2023/09/19 12:58:13;;;;;;;0.40;0.40;;;19.30;99.90;;;;;;5094057;28;20043;-72
2023/09/19 13:00:44;;;;;;;0.30;0.30;;;19.40;99.90;;;;;;5094366;28;20040;-74
2023/09/19 13:03:31;;;;;;;0.30;0.30;;;19.40;99.90;;;;;;5092301;28;20062;-74
2023/09/19 13:06:03;;;;;;;1.10;0.50;;;19.30;99.90;;;;;;5093616;28;20498;-74
2023/09/19 13:08:49;;;;;;;0.45;0.35;;;19.30;99.90;;;;;;5093416;28;20205;-74
2023/09/19 13:11:20;;;;;;;0.60;0.60;;;19.40;99.90;;;;;;5094003;28;20047;-73
2023/09/19 13:14:40;;;;;;;0.30;0.30;;;19.30;99.90;;;;;;5093960;28;20057;-71
2023/09/19 13:17:19;;;;;;;0.40;0.40;;;19.20;99.90;;;;;;5094190;28;20032;-72